Página principal
METAR-TAF:

METAR-TAF

Aeroportos :

Nizhnevartovsk, Rússia

latitude: 60-56N, longitude: 076-29E, altura: 54 m

Observação actual do tempo

O boletim foi feito há 12 minutos, às 17:00 UTC
Vento 8 kt de norte
Temperatura 20°C
Humidade 64%
Pressão 1010 hPa
Visibilidade 10 km ou mais
sem nuvens abaixo de 1500 metros e sem cumulonimbus

METAR: USNN 231700Z 36004MPS CAVOK 20/13 Q1010 R03/0///65 NOSIG RMK QFE754

Hora: 22:12 (17:12 UTC)

Previsão

O boletim foi feito há 3 horas e 12 minutos, às 14:00 UTC
Previsão válida de 23 às 15 UTC a 24 às 15 UTC
Vento 6 kt de norte
Visibilidade 10 km ou mais
sem nuvens abaixo de 1500 metros e sem cumulonimbus
Tornando-se
de 24 às 03 UTC a 24 às 04 UTC
Vento 10 kt de nor-nordeste com rajadas de 19 kt

TAF: USNN 231400Z 2315/2415 01003MPS CAVOK BECMG 2403/2404 02005G10MPS

Observações e previsões do tempo de mais de 4000 aeroportos (mensagens METAR e TAF).

As estações disponíveis são os pontos amarelos e vermelhos sobre o mapa.

Mova o rato sobre o mapa para ver o nome da estação.

Depois clique no ponto para visualizar as observações e previsões meteorológicas.

Para alterar o mapa : clique nos botões verdes com uma cruz preta para aumentar o zoom; no botão verde com uma pitada de zoom; ou nas setas verdes para mapas adjacentes.


METAR-TAF: